createdAt,value
2023-05-21T00:02:19.676Z,59.71
2023-05-21T00:04:46.290Z,60.36
2023-05-21T00:07:13.382Z,61.53
2023-05-21T00:09:39.782Z,61.91
2023-05-21T00:12:08.197Z,62.26
2023-05-21T00:14:35.536Z,62.59
2023-05-21T00:17:02.020Z,62.56
2023-05-21T00:19:28.505Z,63.02
2023-05-21T00:21:55.900Z,63.81
2023-05-21T00:24:22.291Z,63.81
2023-05-21T00:26:48.677Z,63.75
2023-05-21T00:29:15.092Z,64.03
2023-05-21T00:31:41.535Z,63.98
2023-05-21T00:34:07.987Z,64.31
2023-05-21T00:36:34.759Z,64.02
2023-05-21T00:39:02.352Z,64.38
2023-05-21T00:41:30.123Z,64.57
2023-05-21T00:44:00.230Z,64.54
2023-05-21T00:46:28.499Z,64.36
2023-05-21T00:48:55.479Z,63.87
2023-05-21T00:51:22.125Z,64.47
2023-05-21T00:53:52.522Z,64.39
2023-05-21T00:56:22.575Z,64.74
2023-05-21T00:58:51.708Z,64.79
2023-05-21T01:01:18.468Z,64.92
2023-05-21T01:03:44.990Z,64.80
2023-05-21T01:06:13.917Z,64.71
2023-05-21T01:08:41.610Z,65.22
2023-05-21T01:11:09.420Z,64.98
2023-05-21T01:13:39.870Z,65.30
2023-05-21T01:16:06.720Z,65.32
2023-05-21T01:18:43.470Z,65.60
2023-05-21T01:21:10.232Z,65.65
2023-05-21T01:23:36.765Z,65.87
2023-05-21T01:26:03.154Z,65.56
2023-05-21T01:28:29.872Z,65.46
2023-05-21T01:31:02.881Z,65.48
2023-05-21T01:33:49.902Z,65.68
2023-05-21T01:36:26.836Z,66.05
2023-05-21T01:39:23.837Z,65.03
2023-05-21T01:41:53.362Z,65.73
2023-05-21T01:44:20.913Z,66.47
2023-05-21T01:46:47.359Z,66.61
2023-05-21T01:49:15.758Z,66.20
2023-05-21T01:51:42.800Z,65.83
2023-05-21T01:54:09.191Z,66.05
2023-05-21T01:56:36.976Z,66.24
2023-05-21T01:59:03.451Z,66.63
2023-05-21T02:01:30.590Z,66.64
2023-05-21T02:03:58.058Z,66.66
2023-05-21T02:06:24.611Z,67.31
2023-05-21T02:08:51.053Z,67.35
2023-05-21T02:11:17.609Z,67.46
2023-05-21T02:13:46.049Z,67.30
2023-05-21T02:16:14.578Z,67.81
2023-05-21T02:18:43.599Z,67.49
2023-05-21T02:21:13.489Z,67.58
2023-05-21T02:23:39.949Z,67.51
2023-05-21T02:26:06.366Z,68.13
2023-05-21T02:28:33.746Z,68.14
2023-05-21T02:31:00.562Z,68.11
2023-05-21T02:33:26.975Z,68.76
2023-05-21T02:35:53.524Z,69.30
2023-05-21T02:38:23.053Z,69.38
2023-05-21T02:40:53.290Z,69.42
2023-05-21T02:43:19.875Z,69.32
2023-05-21T02:45:46.336Z,69.35
2023-05-21T02:48:12.830Z,69.90
2023-05-21T02:50:39.348Z,69.48
2023-05-21T02:53:06.314Z,69.35
2023-05-21T02:55:32.717Z,69.83
2023-05-21T02:57:59.086Z,69.61
2023-05-21T03:00:25.451Z,70.00
2023-05-21T03:02:51.868Z,70.19
2023-05-21T03:05:18.386Z,69.54
2023-05-21T03:07:44.780Z,69.06
2023-05-21T03:10:11.203Z,69.38
2023-05-21T03:12:37.975Z,69.30
2023-05-21T03:15:04.873Z,69.11
2023-05-21T03:17:32.269Z,69.53
2023-05-21T03:19:58.748Z,69.73
2023-05-21T03:22:25.217Z,69.10
2023-05-21T03:24:51.605Z,68.95
2023-05-21T03:27:18.017Z,68.28
2023-05-21T03:29:44.610Z,69.10
2023-05-21T03:32:11.135Z,69.40
2023-05-21T03:34:37.627Z,69.21
2023-05-21T03:37:04.106Z,69.91
2023-05-21T03:39:30.503Z,69.47
2023-05-21T03:41:56.904Z,69.92
2023-05-21T03:44:23.303Z,70.02
2023-05-21T03:46:49.697Z,69.97
2023-05-21T03:49:16.172Z,70.18
2023-05-21T03:51:42.655Z,69.81
2023-05-21T03:54:09.096Z,69.38
2023-05-21T03:56:35.626Z,69.89
2023-05-21T03:59:02.191Z,69.79
2023-05-21T04:01:32.889Z,70.23
2023-05-21T04:03:59.446Z,69.82
2023-05-21T04:06:25.950Z,70.26
2023-05-21T04:08:52.390Z,70.35
2023-05-21T04:11:18.862Z,70.16
2023-05-21T04:13:46.095Z,69.96
2023-05-21T04:16:14.733Z,70.47
2023-05-21T04:18:45.661Z,70.51
2023-05-21T04:21:12.386Z,70.92
2023-05-21T04:23:38.799Z,70.85
2023-05-21T04:26:05.235Z,70.94
2023-05-21T04:28:31.684Z,70.72
2023-05-21T04:30:58.775Z,70.78
2023-05-21T04:33:25.649Z,70.49
2023-05-21T04:35:52.125Z,70.37
2023-05-21T04:38:19.767Z,70.40
2023-05-21T04:40:53.142Z,70.18
2023-05-21T04:43:25.745Z,70.63
2023-05-21T04:45:54.694Z,70.18
2023-05-21T04:48:24.570Z,69.73
2023-05-21T04:50:51.953Z,70.32
2023-05-21T04:53:18.342Z,70.48
2023-05-21T04:55:44.788Z,70.34
2023-05-21T04:58:11.196Z,70.53
2023-05-21T05:00:38.335Z,70.40
2023-05-21T05:03:05.160Z,69.76
2023-05-21T05:05:31.637Z,69.79
2023-05-21T05:07:58.206Z,69.81
2023-05-21T05:10:24.593Z,70.04
2023-05-21T05:12:50.951Z,70.45
2023-05-21T05:15:17.346Z,70.59
2023-05-21T05:17:44.745Z,70.18
2023-05-21T05:20:11.592Z,70.18
2023-05-21T05:22:38.077Z,70.37
2023-05-21T05:25:04.976Z,70.34
2023-05-21T05:27:31.436Z,70.47
2023-05-21T05:29:57.869Z,70.58
2023-05-21T05:32:24.292Z,70.69
2023-05-21T05:34:50.785Z,70.73
2023-05-21T05:37:17.244Z,70.80
2023-05-21T05:39:43.674Z,71.00
2023-05-21T05:42:10.062Z,70.79
2023-05-21T05:44:36.588Z,70.69
2023-05-21T05:47:03.085Z,70.35
2023-05-21T05:49:29.514Z,70.11
2023-05-21T05:51:56.638Z,69.33
2023-05-21T05:54:23.079Z,69.69
2023-05-21T05:56:49.452Z,69.63
2023-05-21T05:59:16.472Z,69.63
2023-05-21T06:01:42.937Z,69.85
2023-05-21T06:04:09.422Z,69.55
2023-05-21T06:06:36.708Z,69.74
2023-05-21T06:09:03.169Z,69.95
2023-05-21T06:11:29.654Z,69.07
2023-05-21T06:13:56.702Z,69.38
2023-05-21T06:16:23.258Z,69.21
2023-05-21T06:18:49.767Z,68.74
2023-05-21T06:21:16.390Z,69.07
2023-05-21T06:23:42.817Z,69.21
2023-05-21T06:26:09.291Z,69.23
2023-05-21T06:28:36.209Z,69.08
2023-05-21T06:31:02.713Z,68.79
2023-05-21T06:33:29.234Z,68.50
2023-05-21T06:35:56.010Z,68.48
2023-05-21T06:38:22.469Z,68.39
2023-05-21T06:40:49.464Z,68.24
2023-05-21T06:43:15.994Z,68.31
2023-05-21T06:45:42.498Z,68.09
2023-05-21T06:48:09.144Z,67.70
2023-05-21T06:50:35.650Z,68.41
2023-05-21T06:53:02.099Z,68.12
2023-05-21T06:55:28.588Z,66.66
2023-05-21T06:57:57.454Z,67.88
2023-05-21T07:00:23.933Z,67.03
2023-05-21T07:02:50.690Z,67.05
2023-05-21T07:05:17.258Z,67.71
2023-05-21T07:07:43.736Z,67.17
2023-05-21T07:10:10.639Z,67.09
2023-05-21T07:12:37.078Z,66.91
2023-05-21T07:15:03.709Z,66.44
2023-05-21T07:17:30.221Z,65.91
2023-05-21T07:19:56.679Z,65.88
2023-05-21T07:22:23.039Z,66.06
2023-05-21T07:24:49.451Z,66.05
2023-05-21T07:27:25.252Z,65.94
2023-05-21T07:29:52.486Z,66.72
2023-05-21T07:32:18.889Z,65.87
2023-05-21T07:34:45.982Z,65.55
2023-05-21T07:37:13.766Z,65.35
2023-05-21T07:39:40.503Z,65.38
2023-05-21T07:42:11.222Z,65.13
2023-05-21T07:44:37.754Z,64.94
2023-05-21T07:47:05.149Z,64.91
2023-05-21T07:49:31.621Z,64.71
2023-05-21T07:51:58.035Z,64.53
2023-05-21T07:54:24.458Z,63.96
2023-05-21T07:56:50.963Z,64.61
2023-05-21T07:59:17.388Z,63.82
2023-05-21T08:01:44.160Z,64.34
2023-05-21T08:04:11.152Z,64.49
2023-05-21T08:06:37.779Z,64.51
2023-05-21T08:09:06.153Z,64.46
2023-05-21T08:11:33.132Z,63.79
2023-05-21T08:14:00.057Z,64.00
2023-05-21T08:16:26.905Z,64.06
2023-05-21T08:18:53.604Z,63.52
2023-05-21T08:21:20.137Z,63.76
2023-05-21T08:23:46.576Z,63.56
2023-05-21T08:26:13.041Z,63.92
2023-05-21T08:28:39.539Z,63.88
2023-05-21T08:31:06.052Z,63.86
2023-05-21T08:33:37.072Z,63.62
2023-05-21T08:36:07.258Z,63.58
2023-05-21T08:38:35.141Z,63.53
2023-05-21T08:41:01.559Z,63.51
2023-05-21T08:43:29.137Z,63.98
2023-05-21T08:45:59.075Z,63.13
2023-05-21T08:48:25.739Z,62.88
2023-05-21T08:50:53.480Z,64.13
2023-05-21T08:53:28.072Z,63.98
2023-05-21T08:55:57.240Z,63.12
2023-05-21T08:58:24.348Z,62.08
2023-05-21T09:00:50.998Z,62.92
2023-05-21T09:03:17.929Z,62.60
2023-05-21T09:05:45.740Z,62.77
2023-05-21T09:08:19.408Z,62.28
2023-05-21T09:10:50.629Z,61.74
2023-05-21T09:13:18.286Z,61.82
2023-05-21T09:15:45.759Z,61.38
2023-05-21T09:18:12.727Z,61.73
2023-05-21T09:20:39.900Z,61.48
2023-05-21T09:23:12.389Z,61.78
2023-05-21T09:25:39.624Z,60.54
2023-05-21T09:28:12.952Z,60.21
2023-05-21T09:30:53.525Z,60.55
2023-05-21T09:33:29.530Z,60.63
2023-05-21T09:35:56.479Z,60.19
2023-05-21T09:38:23.974Z,59.72
2023-05-21T09:40:50.504Z,59.18
2023-05-21T09:43:17.242Z,58.64
2023-05-21T09:45:59.725Z,59.94
2023-05-21T09:48:34.678Z,59.50
2023-05-21T09:51:18.529Z,58.52
2023-05-21T09:53:50.127Z,57.96
2023-05-21T09:56:19.197Z,58.35
2023-05-21T09:58:46.267Z,59.28
2023-05-21T10:01:13.357Z,59.42
2023-05-21T10:03:42.614Z,60.71
2023-05-21T10:06:10.074Z,58.73
2023-05-21T10:08:41.011Z,58.83
2023-05-21T10:11:08.922Z,58.55
2023-05-21T10:13:41.593Z,56.23
2023-05-21T10:16:08.454Z,56.27
2023-05-21T10:18:37.656Z,54.84
2023-05-21T10:21:07.091Z,55.17
2023-05-21T10:23:36.182Z,54.33
2023-05-21T10:26:04.060Z,54.64
2023-05-21T10:28:37.596Z,55.30
2023-05-21T10:31:04.380Z,55.21
2023-05-21T10:33:32.032Z,54.96
2023-05-21T10:35:59.365Z,56.79
2023-05-21T10:38:27.599Z,55.91
2023-05-21T10:40:55.793Z,53.63
2023-05-21T10:43:59.529Z,53.81
2023-05-21T10:47:08.673Z,52.13
2023-05-21T10:49:49.486Z,50.88
2023-05-21T10:52:34.850Z,52.43
2023-05-21T10:55:26.954Z,52.13
2023-05-21T10:58:12.278Z,52.33
2023-05-21T11:00:39.326Z,51.12
2023-05-21T11:03:07.685Z,49.96
2023-05-21T11:05:55.254Z,47.82
2023-05-21T11:08:35.647Z,47.86
2023-05-21T11:11:03.487Z,46.88
2023-05-21T11:13:49.152Z,47.61
2023-05-21T11:16:17.117Z,49.86
2023-05-21T11:18:46.533Z,48.42
2023-05-21T11:21:18.194Z,49.54
2023-05-21T11:23:50.684Z,51.33
2023-05-21T11:26:18.612Z,50.61
2023-05-21T11:28:45.164Z,47.44
2023-05-21T11:31:28.045Z,49.49
2023-05-21T11:34:21.750Z,50.77
2023-05-21T11:36:49.720Z,49.55
2023-05-21T11:39:25.409Z,50.98
2023-05-21T11:41:53.276Z,50.47
2023-05-21T11:44:37.464Z,52.20
2023-05-21T11:47:04.715Z,51.20
2023-05-21T11:49:31.827Z,48.54
2023-05-21T11:52:00.500Z,50.69
2023-05-21T11:54:27.961Z,50.74
2023-05-21T11:56:54.959Z,51.08
2023-05-21T11:59:21.430Z,49.62
2023-05-21T12:01:47.797Z,48.09
2023-05-21T12:04:14.232Z,49.24
2023-05-21T12:06:44.046Z,48.00
2023-05-21T12:09:11.130Z,47.03
2023-05-21T12:11:41.386Z,48.23
2023-05-21T12:14:11.218Z,46.76
2023-05-21T12:16:39.342Z,46.98
2023-05-21T12:19:06.731Z,46.03
2023-05-21T12:21:34.091Z,45.17
2023-05-21T12:24:00.555Z,43.87
2023-05-21T12:26:27.652Z,44.21
2023-05-21T12:28:55.100Z,44.68
2023-05-21T12:31:22.956Z,44.73
2023-05-21T12:33:50.942Z,45.71
2023-05-21T12:36:28.236Z,44.64
2023-05-21T12:38:54.652Z,44.65
2023-05-21T12:41:22.047Z,44.92
2023-05-21T12:43:49.093Z,44.71
2023-05-21T12:46:17.608Z,46.78
2023-05-21T12:48:55.446Z,46.24
2023-05-21T12:51:22.378Z,46.01
2023-05-21T12:53:48.897Z,45.88
2023-05-21T12:56:15.932Z,46.51
2023-05-21T12:58:43.005Z,45.62
2023-05-21T13:01:11.253Z,46.32
2023-05-21T13:03:38.941Z,44.68
2023-05-21T13:06:09.266Z,46.02
2023-05-21T13:08:35.767Z,45.16
2023-05-21T13:11:03.464Z,44.67
2023-05-21T13:13:30.565Z,45.20
2023-05-21T13:15:57.107Z,46.16
2023-05-21T13:18:23.663Z,46.72
2023-05-21T13:20:51.606Z,46.20
2023-05-21T13:23:18.031Z,45.09
2023-05-21T13:25:44.601Z,44.90
2023-05-21T13:28:14.941Z,45.87
2023-05-21T13:30:41.410Z,45.25
2023-05-21T13:33:08.031Z,45.31
2023-05-21T13:35:34.716Z,45.92
2023-05-21T13:38:01.159Z,44.29
2023-05-21T13:40:27.764Z,43.54
2023-05-21T13:42:54.197Z,43.38
2023-05-21T13:45:21.040Z,45.37
2023-05-21T13:47:48.197Z,44.12
2023-05-21T13:50:16.132Z,42.57
2023-05-21T13:52:42.607Z,44.29
2023-05-21T13:55:09.920Z,43.66
2023-05-21T13:57:36.446Z,44.10
2023-05-21T14:00:03.914Z,43.09
2023-05-21T14:02:30.506Z,43.35
2023-05-21T14:04:57.135Z,42.19
2023-05-21T14:07:23.606Z,42.79
2023-05-21T14:09:50.111Z,43.97
2023-05-21T14:12:17.018Z,43.48
2023-05-21T14:14:43.629Z,43.10
2023-05-21T14:17:10.084Z,43.96
2023-05-21T14:19:36.582Z,42.11
2023-05-21T14:22:02.968Z,41.95
2023-05-21T14:24:29.403Z,41.27
2023-05-21T14:26:55.800Z,42.38
2023-05-21T14:29:22.209Z,42.12
2023-05-21T14:31:48.705Z,43.31
2023-05-21T14:34:15.293Z,42.31
2023-05-21T14:36:41.823Z,42.68
2023-05-21T14:39:08.252Z,41.53
2023-05-21T14:41:39.102Z,43.00
2023-05-21T14:44:05.680Z,42.45
2023-05-21T14:46:32.525Z,42.89
2023-05-21T14:49:00.149Z,43.36
2023-05-21T14:51:26.648Z,42.05
2023-05-21T14:53:53.064Z,42.65
2023-05-21T14:56:21.889Z,43.72
2023-05-21T14:58:48.540Z,43.81
2023-05-21T15:01:15.065Z,43.58
2023-05-21T15:03:41.624Z,44.72
2023-05-21T15:06:08.340Z,40.63
2023-05-21T15:08:34.808Z,42.74
2023-05-21T15:11:01.200Z,42.16
2023-05-21T15:13:27.961Z,39.76
2023-05-21T15:15:54.481Z,42.18
2023-05-21T15:18:20.980Z,42.38
2023-05-21T15:20:47.632Z,42.42
2023-05-21T15:23:17.182Z,42.79
2023-05-21T15:25:44.857Z,41.15
2023-05-21T15:28:12.015Z,42.40
2023-05-21T15:30:38.554Z,42.89
2023-05-21T15:33:05.382Z,43.35
2023-05-21T15:35:32.007Z,43.22
2023-05-21T15:37:58.471Z,43.49
2023-05-21T15:40:26.933Z,43.19
2023-05-21T15:42:53.806Z,44.55
2023-05-21T15:45:20.396Z,44.50
2023-05-21T15:47:46.867Z,45.45
2023-05-21T15:50:13.304Z,45.97
2023-05-21T15:52:41.304Z,44.28
2023-05-21T15:55:08.175Z,43.72
2023-05-21T15:57:34.607Z,43.85
2023-05-21T16:00:01.066Z,42.49
2023-05-21T16:02:27.551Z,43.59
2023-05-21T16:04:54.013Z,44.05
2023-05-21T16:07:21.341Z,44.46
2023-05-21T16:09:47.855Z,44.82
2023-05-21T16:12:14.317Z,44.03
2023-05-21T16:14:41.329Z,43.25
2023-05-21T16:17:08.121Z,43.03
2023-05-21T16:19:34.750Z,42.26
2023-05-21T16:22:01.981Z,42.53
2023-05-21T16:24:28.351Z,42.92
2023-05-21T16:26:55.383Z,43.69
2023-05-21T16:29:22.317Z,43.41
2023-05-21T16:31:49.111Z,44.28
2023-05-21T16:34:16.035Z,44.86
2023-05-21T16:36:42.822Z,45.84
2023-05-21T16:39:09.351Z,45.75
2023-05-21T16:41:35.816Z,45.38
2023-05-21T16:44:02.290Z,46.00
2023-05-21T16:46:28.691Z,46.55
2023-05-21T16:48:55.070Z,46.70
2023-05-21T16:51:21.427Z,47.26
2023-05-21T16:53:48.183Z,47.28
2023-05-21T16:56:14.816Z,47.50
2023-05-21T16:58:41.257Z,47.08
2023-05-21T17:01:07.703Z,47.57
2023-05-21T17:03:34.359Z,48.95
2023-05-21T17:06:00.830Z,47.75
2023-05-21T17:08:27.235Z,48.22
2023-05-21T17:10:53.673Z,48.89
2023-05-21T17:13:22.742Z,47.86
2023-05-21T17:15:51.155Z,48.99
2023-05-21T17:18:17.739Z,48.47
2023-05-21T17:20:44.283Z,48.72
2023-05-21T17:23:11.839Z,48.40
2023-05-21T17:25:38.647Z,48.34
2023-05-21T17:28:05.434Z,48.80
2023-05-21T17:30:31.870Z,49.04
2023-05-21T17:32:58.375Z,49.27
2023-05-21T17:35:24.918Z,49.84
2023-05-21T17:37:53.199Z,48.93
2023-05-21T17:40:21.318Z,48.56
2023-05-21T17:42:47.948Z,49.32
2023-05-21T17:45:14.422Z,49.95
2023-05-21T17:47:40.957Z,49.70
2023-05-21T17:50:08.124Z,49.93
2023-05-21T17:52:34.548Z,49.51
2023-05-21T17:55:01.677Z,50.12
2023-05-21T17:57:28.245Z,49.79
2023-05-21T17:59:55.458Z,49.95
2023-05-21T18:02:23.446Z,50.30
2023-05-21T18:04:50.085Z,49.48
2023-05-21T18:07:16.672Z,49.93
2023-05-21T18:09:43.322Z,49.49
2023-05-21T18:12:09.731Z,50.33
2023-05-21T18:14:36.186Z,50.50
2023-05-21T18:17:02.831Z,50.57
2023-05-21T18:19:30.388Z,50.84
2023-05-21T18:21:57.179Z,50.96
2023-05-21T18:24:23.653Z,50.21
2023-05-21T18:26:50.124Z,50.82
2023-05-21T18:29:16.530Z,51.35
2023-05-21T18:31:44.634Z,51.24
2023-05-21T18:34:11.163Z,51.09
2023-05-21T18:36:40.672Z,51.33
2023-05-21T18:39:09.939Z,51.74
2023-05-21T18:41:37.364Z,51.38
2023-05-21T18:44:05.803Z,51.33
2023-05-21T18:46:32.296Z,51.48
2023-05-21T18:49:00.548Z,51.77
2023-05-21T18:51:27.052Z,51.81
2023-05-21T18:53:53.617Z,52.18
2023-05-21T18:56:20.061Z,52.36
2023-05-21T18:58:47.657Z,52.33
2023-05-21T19:01:14.175Z,52.53
2023-05-21T19:03:40.789Z,52.76
2023-05-21T19:06:08.445Z,52.73
2023-05-21T19:08:35.046Z,52.97
2023-05-21T19:11:01.602Z,53.28
2023-05-21T19:13:28.130Z,53.17
2023-05-21T19:15:54.688Z,53.38
2023-05-21T19:18:21.066Z,53.56
2023-05-21T19:20:47.493Z,54.20
2023-05-21T19:23:14.256Z,54.17
2023-05-21T19:25:41.476Z,54.36
2023-05-21T19:28:07.856Z,54.18
2023-05-21T19:30:36.381Z,54.01
2023-05-21T19:33:03.276Z,53.99
2023-05-21T19:35:30.132Z,53.96
2023-05-21T19:38:00.160Z,54.34
2023-05-21T19:40:28.179Z,54.28
2023-05-21T19:42:54.591Z,54.86
2023-05-21T19:45:21.529Z,54.79
2023-05-21T19:47:48.544Z,55.12
2023-05-21T19:50:15.027Z,54.94
2023-05-21T19:52:41.446Z,54.92
2023-05-21T19:55:10.190Z,54.77
2023-05-21T19:57:37.150Z,54.68
2023-05-21T20:00:05.320Z,55.59
2023-05-21T20:02:31.997Z,55.38
2023-05-21T20:04:59.090Z,55.27
2023-05-21T20:07:25.814Z,55.66
2023-05-21T20:09:52.378Z,55.76
2023-05-21T20:12:19.005Z,56.21
2023-05-21T20:14:47.321Z,55.80
2023-05-21T20:17:14.402Z,56.04
2023-05-21T20:19:41.030Z,56.39
2023-05-21T20:22:07.474Z,56.58
2023-05-21T20:24:33.849Z,56.85
2023-05-21T20:27:01.521Z,57.42
2023-05-21T20:29:28.683Z,57.00
2023-05-21T20:31:55.271Z,57.27
2023-05-21T20:34:21.792Z,56.98
2023-05-21T20:36:48.372Z,57.96
2023-05-21T20:39:15.561Z,57.87
2023-05-21T20:41:44.486Z,57.59
2023-05-21T20:44:11.100Z,57.75
2023-05-21T20:46:38.259Z,57.00
2023-05-21T20:49:05.177Z,57.25
2023-05-21T20:51:31.710Z,57.82
2023-05-21T20:53:58.270Z,57.89
2023-05-21T20:56:37.464Z,58.74
2023-05-21T20:59:09.966Z,59.20
2023-05-21T21:01:37.750Z,59.05
2023-05-21T21:04:04.795Z,58.78
2023-05-21T21:06:31.684Z,59.54
2023-05-21T21:08:58.171Z,59.52
2023-05-21T21:11:24.640Z,59.24
2023-05-21T21:13:51.756Z,59.71
2023-05-21T21:16:18.172Z,58.89
2023-05-21T21:18:45.999Z,59.46
2023-05-21T21:21:12.544Z,60.13
2023-05-21T21:23:39.019Z,59.57
2023-05-21T21:26:05.578Z,59.56
2023-05-21T21:28:31.967Z,58.83
2023-05-21T21:30:58.394Z,58.62
2023-05-21T21:33:26.440Z,59.89
2023-05-21T21:35:52.931Z,59.25
2023-05-21T21:38:19.292Z,60.04
2023-05-21T21:40:45.750Z,59.84
2023-05-21T21:43:12.140Z,60.40
2023-05-21T21:45:38.620Z,60.79
2023-05-21T21:48:05.225Z,61.38
2023-05-21T21:50:31.712Z,61.04
2023-05-21T21:52:58.088Z,61.93
2023-05-21T21:55:24.566Z,62.45
2023-05-21T21:57:51.244Z,62.10
2023-05-21T22:00:17.868Z,62.39
2023-05-21T22:02:46.553Z,62.41
2023-05-21T22:05:14.900Z,63.49
2023-05-21T22:07:42.630Z,62.41
2023-05-21T22:10:09.418Z,63.44
2023-05-21T22:12:35.908Z,63.01
2023-05-21T22:15:05.104Z,64.46
2023-05-21T22:17:32.712Z,64.29
2023-05-21T22:19:59.452Z,64.68
2023-05-21T22:22:26.225Z,64.54
2023-05-21T22:24:53.385Z,64.69
2023-05-21T22:27:20.268Z,64.07
2023-05-21T22:29:47.023Z,64.71
2023-05-21T22:32:13.709Z,64.80
2023-05-21T22:34:40.102Z,65.00
2023-05-21T22:37:06.473Z,64.98
2023-05-21T22:39:32.852Z,64.57
2023-05-21T22:41:59.578Z,64.86
2023-05-21T22:44:25.999Z,64.32
2023-05-21T22:46:52.455Z,65.48
2023-05-21T22:49:19.742Z,65.56
2023-05-21T22:51:46.301Z,66.11
2023-05-21T22:54:12.708Z,65.84
2023-05-21T22:56:39.106Z,65.62
2023-05-21T22:59:05.570Z,66.24
2023-05-21T23:01:32.014Z,66.56
2023-05-21T23:03:58.427Z,66.49
2023-05-21T23:06:24.801Z,66.86
2023-05-21T23:08:51.221Z,67.32
2023-05-21T23:11:17.639Z,67.08
2023-05-21T23:13:44.000Z,67.11
2023-05-21T23:16:10.431Z,67.41
2023-05-21T23:18:36.908Z,66.13
2023-05-21T23:21:03.424Z,65.86
2023-05-21T23:23:30.417Z,65.45
2023-05-21T23:25:58.743Z,65.79
2023-05-21T23:28:25.810Z,65.53
2023-05-21T23:30:52.602Z,66.12
2023-05-21T23:33:19.002Z,67.16
2023-05-21T23:35:45.441Z,67.76
2023-05-21T23:38:11.826Z,68.07
2023-05-21T23:40:38.511Z,67.75
2023-05-21T23:43:05.192Z,68.57
2023-05-21T23:45:31.697Z,68.44
2023-05-21T23:47:58.173Z,68.09
2023-05-21T23:50:24.894Z,67.57
2023-05-21T23:52:51.342Z,67.30
2023-05-21T23:55:17.801Z,67.31
2023-05-21T23:57:44.219Z,67.95
